sensor_id;sensor_type;location;lat;lon;timestamp;pressure;altitude;pressure_sealevel;temperature;humidity
3960;BME280;1994;48.640;8.894;2023-02-10T00:01:31;97881.31;;;-1.75;76.50
3960;BME280;1994;48.640;8.894;2023-02-10T00:04:00;97885.34;;;-1.83;76.89
3960;BME280;1994;48.640;8.894;2023-02-10T00:06:28;97881.56;;;-1.78;76.71
3960;BME280;1994;48.640;8.894;2023-02-10T00:08:57;97885.91;;;-1.69;76.90
3960;BME280;1994;48.640;8.894;2023-02-10T00:11:25;97874.16;;;-1.70;76.84
3960;BME280;1994;48.640;8.894;2023-02-10T00:14:16;97878.66;;;-1.73;76.82
3960;BME280;1994;48.640;8.894;2023-02-10T00:16:42;97885.91;;;-1.69;77.43
3960;BME280;1994;48.640;8.894;2023-02-10T00:19:08;97875.53;;;-1.66;76.76
3960;BME280;1994;48.640;8.894;2023-02-10T00:21:34;97869.31;;;-1.73;77.19
3960;BME280;1994;48.640;8.894;2023-02-10T00:24:00;97865.84;;;-1.72;76.61
3960;BME280;1994;48.640;8.894;2023-02-10T00:26:26;97868.50;;;-1.73;76.93
3960;BME280;1994;48.640;8.894;2023-02-10T00:28:55;97870.34;;;-1.75;77.49
3960;BME280;1994;48.640;8.894;2023-02-10T00:31:20;97868.59;;;-1.75;78.18
3960;BME280;1994;48.640;8.894;2023-02-10T00:33:47;97875.53;;;-1.66;78.75
3960;BME280;1994;48.640;8.894;2023-02-10T00:36:14;97866.53;;;-1.59;79.15
3960;BME280;1994;48.640;8.894;2023-02-10T00:38:42;97862.63;;;-1.52;78.94
3960;BME280;1994;48.640;8.894;2023-02-10T00:41:09;97867.44;;;-1.49;79.25
3960;BME280;1994;48.640;8.894;2023-02-10T00:43:36;97869.31;;;-1.51;79.49
3960;BME280;1994;48.640;8.894;2023-02-10T00:46:03;97876.00;;;-1.50;79.83
3960;BME280;1994;48.640;8.894;2023-02-10T00:48:29;97879.22;;;-1.48;79.86
3960;BME280;1994;48.640;8.894;2023-02-10T00:50:54;97878.75;;;-1.42;79.75
3960;BME280;1994;48.640;8.894;2023-02-10T00:53:20;97884.56;;;-1.40;80.03
3960;BME280;1994;48.640;8.894;2023-02-10T00:55:46;97883.63;;;-1.39;80.10
3960;BME280;1994;48.640;8.894;2023-02-10T00:58:12;97892.75;;;-1.47;80.05
3960;BME280;1994;48.640;8.894;2023-02-10T01:00:38;97896.13;;;-1.47;80.35
3960;BME280;1994;48.640;8.894;2023-02-10T01:03:04;97903.03;;;-1.49;80.49
3960;BME280;1994;48.640;8.894;2023-02-10T01:05:30;97899.09;;;-1.53;81.27
3960;BME280;1994;48.640;8.894;2023-02-10T01:07:58;97905.09;;;-1.54;81.25
3960;BME280;1994;48.640;8.894;2023-02-10T01:10:24;97897.94;;;-1.49;81.28
3960;BME280;1994;48.640;8.894;2023-02-10T01:12:50;97891.72;;;-1.56;81.55
3960;BME280;1994;48.640;8.894;2023-02-10T01:15:16;97898.88;;;-1.61;81.47
3960;BME280;1994;48.640;8.894;2023-02-10T01:17:42;97903.94;;;-1.61;81.42
3960;BME280;1994;48.640;8.894;2023-02-10T01:20:09;97907.63;;;-1.54;81.51
3960;BME280;1994;48.640;8.894;2023-02-10T01:22:35;97899.09;;;-1.75;82.44
3960;BME280;1994;48.640;8.894;2023-02-10T01:25:05;97904.16;;;-1.75;82.49
3960;BME280;1994;48.640;8.894;2023-02-10T01:27:31;97911.09;;;-1.77;82.69
3960;BME280;1994;48.640;8.894;2023-02-10T01:29:56;97910.16;;;-1.76;82.46
3960;BME280;1994;48.640;8.894;2023-02-10T01:32:22;97907.16;;;-1.81;82.18
3960;BME280;1994;48.640;8.894;2023-02-10T01:34:48;97909.22;;;-1.86;82.76
3960;BME280;1994;48.640;8.894;2023-02-10T01:37:14;97908.19;;;-1.83;82.91
3960;BME280;1994;48.640;8.894;2023-02-10T01:39:40;97912.47;;;-1.84;82.45
3960;BME280;1994;48.640;8.894;2023-02-10T01:42:05;97903.94;;;-1.83;82.65
3960;BME280;1994;48.640;8.894;2023-02-10T01:46:58;97894.81;;;-1.85;82.76
3960;BME280;1994;48.640;8.894;2023-02-10T01:49:28;97900.72;;;-1.85;82.70
3960;BME280;1994;48.640;8.894;2023-02-10T01:52:05;97910.41;;;-1.79;82.70
3960;BME280;1994;48.640;8.894;2023-02-10T01:54:39;97909.97;;;-1.73;82.71
3960;BME280;1994;48.640;8.894;2023-02-10T01:57:06;97904.41;;;-1.67;82.18
3960;BME280;1994;48.640;8.894;2023-02-10T01:59:36;97907.63;;;-1.65;82.70
3960;BME280;1994;48.640;8.894;2023-02-10T02:02:02;97903.25;;;-1.74;82.54
3960;BME280;1994;48.640;8.894;2023-02-10T02:07:19;97905.34;;;-1.79;82.36
3960;BME280;1994;48.640;8.894;2023-02-10T02:09:47;97912.03;;;-1.78;82.05
3960;BME280;1994;48.640;8.894;2023-02-10T02:12:41;97915.94;;;-1.85;83.09
3960;BME280;1994;48.640;8.894;2023-02-10T02:16:10;97919.63;;;-1.89;83.40
3960;BME280;1994;48.640;8.894;2023-02-10T02:18:51;97921.25;;;-1.88;83.61
3960;BME280;1994;48.640;8.894;2023-02-10T02:27:54;97940.16;;;-1.92;83.79
3960;BME280;1994;48.640;8.894;2023-02-10T02:33:27;97934.38;;;-1.94;83.15
3960;BME280;1994;48.640;8.894;2023-02-10T02:36:04;97928.19;;;-1.90;83.49
3960;BME280;1994;48.640;8.894;2023-02-10T02:38:39;97929.53;;;-1.86;83.37
3960;BME280;1994;48.640;8.894;2023-02-10T02:41:05;97921.25;;;-1.88;83.21
3960;BME280;1994;48.640;8.894;2023-02-10T02:43:30;97932.44;;;-1.90;83.28
3960;BME280;1994;48.640;8.894;2023-02-10T02:46:12;97930.25;;;-1.95;83.70
3960;BME280;1994;48.640;8.894;2023-02-10T02:48:52;97935.78;;;-2.01;83.90
3960;BME280;1994;48.640;8.894;2023-02-10T02:52:03;97939.22;;;-2.02;83.96
3960;BME280;1994;48.640;8.894;2023-02-10T02:54:47;97937.59;;;-2.03;83.93
3960;BME280;1994;48.640;8.894;2023-02-10T02:57:35;97944.53;;;-2.05;83.09
3960;BME280;1994;48.640;8.894;2023-02-10T03:00:08;97937.81;;;-2.17;83.83
3960;BME280;1994;48.640;8.894;2023-02-10T03:02:38;97934.53;;;-2.19;83.36
3960;BME280;1994;48.640;8.894;2023-02-10T03:05:08;97941.94;;;-2.16;83.59
3960;BME280;1994;48.640;8.894;2023-02-10T03:07:34;97934.50;;;-2.30;83.39
3960;BME280;1994;48.640;8.894;2023-02-10T03:10:01;97935.09;;;-2.26;83.49
3960;BME280;1994;48.640;8.894;2023-02-10T03:12:26;97933.03;;;-2.21;82.71
3960;BME280;1994;48.640;8.894;2023-02-10T03:14:52;97930.41;;;-2.20;82.47
3960;BME280;1994;48.640;8.894;2023-02-10T03:17:18;97936.59;;;-2.24;83.18
3960;BME280;1994;48.640;8.894;2023-02-10T03:19:44;97947.47;;;-2.22;81.21
3960;BME280;1994;48.640;8.894;2023-02-10T03:22:10;97950.53;;;-2.40;81.58
3960;BME280;1994;48.640;8.894;2023-02-10T03:24:35;97949.25;;;-2.35;82.16
3960;BME280;1994;48.640;8.894;2023-02-10T03:27:05;97948.78;;;-2.40;80.75
3960;BME280;1994;48.640;8.894;2023-02-10T03:29:32;97947.59;;;-2.47;79.57
3960;BME280;1994;48.640;8.894;2023-02-10T03:31:58;97936.00;;;-2.62;80.35
3960;BME280;1994;48.640;8.894;2023-02-10T03:34:28;97947.06;;;-2.63;80.70
3960;BME280;1994;48.640;8.894;2023-02-10T03:36:54;97945.44;;;-2.64;80.91
3960;BME280;1994;48.640;8.894;2023-02-10T03:39:19;97945.25;;;-2.61;81.48
3960;BME280;1994;48.640;8.894;2023-02-10T03:41:45;97940.16;;;-2.61;81.15
3960;BME280;1994;48.640;8.894;2023-02-10T03:44:11;97944.03;;;-2.68;80.64
3960;BME280;1994;48.640;8.894;2023-02-10T03:46:37;97942.56;;;-2.59;80.78
3960;BME280;1994;48.640;8.894;2023-02-10T03:49:04;97949.88;;;-2.55;80.72
3960;BME280;1994;48.640;8.894;2023-02-10T03:51:30;97957.19;;;-2.63;81.82
3960;BME280;1994;48.640;8.894;2023-02-10T03:53:56;97964.31;;;-2.68;81.42
3960;BME280;1994;48.640;8.894;2023-02-10T03:56:21;97967.59;;;-2.66;81.79
3960;BME280;1994;48.640;8.894;2023-02-10T03:58:47;97967.19;;;-2.72;82.90
3960;BME280;1994;48.640;8.894;2023-02-10T04:01:15;97968.81;;;-2.71;83.60
3960;BME280;1994;48.640;8.894;2023-02-10T04:03:42;97968.81;;;-2.71;83.88
3960;BME280;1994;48.640;8.894;2023-02-10T04:06:09;97965.69;;;-2.75;83.15
3960;BME280;1994;48.640;8.894;2023-02-10T04:08:36;97953.97;;;-2.65;84.03
3960;BME280;1994;48.640;8.894;2023-02-10T04:11:02;97964.88;;;-2.52;83.44
3960;BME280;1994;48.640;8.894;2023-02-10T04:13:29;97957.00;;;-2.60;82.69
3960;BME280;1994;48.640;8.894;2023-02-10T04:16:12;97963.25;;;-2.53;83.32
3960;BME280;1994;48.640;8.894;2023-02-10T04:18:39;97957.97;;;-2.50;82.47
3960;BME280;1994;48.640;8.894;2023-02-10T04:21:10;97963.06;;;-2.50;82.44
3960;BME280;1994;48.640;8.894;2023-02-10T04:23:36;97963.63;;;-2.46;82.03
3960;BME280;1994;48.640;8.894;2023-02-10T04:26:03;97957.31;;;-2.41;81.65
3960;BME280;1994;48.640;8.894;2023-02-10T04:28:30;97953.06;;;-2.40;81.28
3960;BME280;1994;48.640;8.894;2023-02-10T04:30:59;97956.50;;;-2.41;81.08
3960;BME280;1994;48.640;8.894;2023-02-10T04:33:26;97956.50;;;-2.41;81.25
3960;BME280;1994;48.640;8.894;2023-02-10T04:35:53;97963.63;;;-2.46;81.80
3960;BME280;1994;48.640;8.894;2023-02-10T04:38:19;97959.34;;;-2.46;81.94
3960;BME280;1994;48.640;8.894;2023-02-10T04:40:48;97962.72;;;-2.45;81.86
3960;BME280;1994;48.640;8.894;2023-02-10T04:43:14;97965.03;;;-2.42;82.53
3960;BME280;1994;48.640;8.894;2023-02-10T04:45:40;97970.22;;;-2.44;82.25
3960;BME280;1994;48.640;8.894;2023-02-10T04:48:06;97968.47;;;-2.43;82.67
3960;BME280;1994;48.640;8.894;2023-02-10T04:50:37;97967.47;;;-2.41;82.51
3960;BME280;1994;48.640;8.894;2023-02-10T04:53:03;97970.91;;;-2.42;82.16
3960;BME280;1994;48.640;8.894;2023-02-10T04:55:29;97974.38;;;-2.43;82.13
3960;BME280;1994;48.640;8.894;2023-02-10T04:57:58;97962.38;;;-2.41;82.07
3960;BME280;1994;48.640;8.894;2023-02-10T05:00:24;97965.47;;;-2.48;82.89
3960;BME280;1994;48.640;8.894;2023-02-10T05:02:50;97976.63;;;-2.51;83.06
3960;BME280;1994;48.640;8.894;2023-02-10T05:05:16;97973.19;;;-2.50;83.33
3960;BME280;1994;48.640;8.894;2023-02-10T05:07:42;97969.84;;;-2.50;83.72
3960;BME280;1994;48.640;8.894;2023-02-10T05:10:11;97972.38;;;-2.50;83.01
3960;BME280;1994;48.640;8.894;2023-02-10T05:12:37;97982.44;;;-2.49;83.49
3960;BME280;1994;48.640;8.894;2023-02-10T05:15:07;97975.00;;;-2.52;83.78
3960;BME280;1994;48.640;8.894;2023-02-10T05:17:33;97986.78;;;-2.51;83.72
3960;BME280;1994;48.640;8.894;2023-02-10T05:19:59;97993.25;;;-2.47;83.51
3960;BME280;1994;48.640;8.894;2023-02-10T05:22:28;97987.97;;;-2.44;83.30
3960;BME280;1994;48.640;8.894;2023-02-10T05:24:56;97996.72;;;-2.48;83.67
3960;BME280;1994;48.640;8.894;2023-02-10T05:27:25;97995.31;;;-2.52;83.89
3960;BME280;1994;48.640;8.894;2023-02-10T05:29:51;98002.22;;;-2.54;83.83
3960;BME280;1994;48.640;8.894;2023-02-10T05:32:17;97996.31;;;-2.54;83.84
3960;BME280;1994;48.640;8.894;2023-02-10T05:34:45;97988.03;;;-2.56;83.20
3960;BME280;1994;48.640;8.894;2023-02-10T05:37:11;97995.97;;;-2.61;83.62
3960;BME280;1994;48.640;8.894;2023-02-10T05:39:37;97994.56;;;-2.65;84.29
3960;BME280;1994;48.640;8.894;2023-02-10T05:42:03;97990.41;;;-2.66;84.13
3960;BME280;1994;48.640;8.894;2023-02-10T05:44:29;97989.69;;;-2.68;84.01
3960;BME280;1994;48.640;8.894;2023-02-10T05:46:55;97997.78;;;-2.63;84.07
3960;BME280;1994;48.640;8.894;2023-02-10T05:49:21;98001.25;;;-2.64;84.79
3960;BME280;1994;48.640;8.894;2023-02-10T05:51:49;98004.69;;;-2.65;84.49
3960;BME280;1994;48.640;8.894;2023-02-10T05:54:15;98001.44;;;-2.67;84.54
3960;BME280;1994;48.640;8.894;2023-02-10T05:56:41;98009.53;;;-2.62;84.98
3960;BME280;1994;48.640;8.894;2023-02-10T05:59:08;98006.91;;;-2.60;85.21
3960;BME280;1994;48.640;8.894;2023-02-10T06:01:35;98009.16;;;-2.56;84.46
3960;BME280;1994;48.640;8.894;2023-02-10T06:04:01;98006.59;;;-2.56;85.12
3960;BME280;1994;48.640;8.894;2023-02-10T06:06:27;98019.88;;;-2.52;84.62
3960;BME280;1994;48.640;8.894;2023-02-10T06:08:53;98022.53;;;-2.54;84.38
3960;BME280;1994;48.640;8.894;2023-02-10T06:11:18;98015.34;;;-2.60;84.18
3960;BME280;1994;48.640;8.894;2023-02-10T06:13:47;98028.03;;;-2.60;84.74
3960;BME280;1994;48.640;8.894;2023-02-10T06:16:13;98027.09;;;-2.59;84.65
3960;BME280;1994;48.640;8.894;2023-02-10T06:18:42;98027.78;;;-2.57;83.94
3960;BME280;1994;48.640;8.894;2023-02-10T06:21:08;98026.66;;;-2.53;84.03
3960;BME280;1994;48.640;8.894;2023-02-10T06:23:34;98034.50;;;-2.56;83.44
3960;BME280;1994;48.640;8.894;2023-02-10T06:26:02;98029.44;;;-2.56;82.71
3960;BME280;1994;48.640;8.894;2023-02-10T06:28:28;98039.00;;;-2.72;83.10
3960;BME280;1994;48.640;8.894;2023-02-10T06:30:54;98037.19;;;-2.70;82.54
3960;BME280;1994;48.640;8.894;2023-02-10T06:33:21;98043.09;;;-2.82;82.01
3960;BME280;1994;48.640;8.894;2023-02-10T06:35:47;98041.59;;;-2.97;82.03
3960;BME280;1994;48.640;8.894;2023-02-10T06:38:13;98042.50;;;-2.98;82.17
3960;BME280;1994;48.640;8.894;2023-02-10T06:40:38;98037.03;;;-2.92;81.08
3960;BME280;1994;48.640;8.894;2023-02-10T06:43:04;98047.16;;;-2.92;81.19
3960;BME280;1994;48.640;8.894;2023-02-10T06:45:30;98052.00;;;-2.89;80.67
3960;BME280;1994;48.640;8.894;2023-02-10T06:47:56;98047.75;;;-2.88;80.93
3960;BME280;1994;48.640;8.894;2023-02-10T06:50:22;98050.59;;;-2.80;81.04
3960;BME280;1994;48.640;8.894;2023-02-10T06:52:51;98046.31;;;-2.80;80.58
3960;BME280;1994;48.640;8.894;2023-02-10T06:55:18;98058.28;;;-2.69;81.13
3960;BME280;1994;48.640;8.894;2023-02-10T06:57:47;98064.28;;;-2.47;82.51
3960;BME280;1994;48.640;8.894;2023-02-10T07:00:14;98071.78;;;-2.33;81.80
3960;BME280;1994;48.640;8.894;2023-02-10T07:02:40;98068.75;;;-2.14;82.10
3960;BME280;1994;48.640;8.894;2023-02-10T07:05:07;98066.22;;;-2.14;82.41
3960;BME280;1994;48.640;8.894;2023-02-10T07:07:37;98073.50;;;-2.10;82.64
3960;BME280;1994;48.640;8.894;2023-02-10T07:10:10;98071.22;;;-2.02;82.55
3960;BME280;1994;48.640;8.894;2023-02-10T07:12:37;98074.16;;;-1.95;81.46
3960;BME280;1994;48.640;8.894;2023-02-10T07:15:04;98059.94;;;-1.98;82.25
3960;BME280;1994;48.640;8.894;2023-02-10T07:17:30;98064.84;;;-1.84;80.64
3960;BME280;1994;48.640;8.894;2023-02-10T07:19:56;98062.06;;;-1.81;79.99
3960;BME280;1994;48.640;8.894;2023-02-10T07:22:25;98062.81;;;-1.79;80.21
3960;BME280;1994;48.640;8.894;2023-02-10T07:24:51;98064.31;;;-1.76;80.48
3960;BME280;1994;48.640;8.894;2023-02-10T07:27:20;98067.19;;;-1.70;79.94
3960;BME280;1994;48.640;8.894;2023-02-10T07:29:45;98074.66;;;-1.56;79.64
3960;BME280;1994;48.640;8.894;2023-02-10T07:32:12;98076.69;;;-1.61;78.72
3960;BME280;1994;48.640;8.894;2023-02-10T07:34:41;98076.75;;;-1.39;78.48
3960;BME280;1994;48.640;8.894;2023-02-10T07:37:07;98080.63;;;-1.68;78.44
3960;BME280;1994;48.640;8.894;2023-02-10T07:39:36;98084.38;;;-1.39;78.61
3960;BME280;1994;48.640;8.894;2023-02-10T07:42:03;98080.28;;;-1.18;77.75
3960;BME280;1994;48.640;8.894;2023-02-10T07:44:28;98083.41;;;-1.14;77.38
3960;BME280;1994;48.640;8.894;2023-02-10T07:46:54;98087.91;;;-1.07;76.83
3960;BME280;1994;48.640;8.894;2023-02-10T07:49:20;98090.94;;;-1.02;76.39
3960;BME280;1994;48.640;8.894;2023-02-10T07:51:46;98097.84;;;-0.82;76.48
3960;BME280;1994;48.640;8.894;2023-02-10T07:54:12;98089.31;;;-0.59;75.33
3960;BME280;1994;48.640;8.894;2023-02-10T07:56:38;98088.50;;;-0.70;75.36
3960;BME280;1994;48.640;8.894;2023-02-10T07:59:07;98088.59;;;-0.94;77.19
3960;BME280;1994;48.640;8.894;2023-02-10T08:01:32;98081.91;;;-0.73;77.05
3960;BME280;1994;48.640;8.894;2023-02-10T08:04:00;98093.00;;;-0.63;76.41
3960;BME280;1994;48.640;8.894;2023-02-10T08:06:26;98090.00;;;-0.46;77.27
3960;BME280;1994;48.640;8.894;2023-02-10T08:08:52;98091.28;;;0.02;75.88
3960;BME280;1994;48.640;8.894;2023-02-10T08:11:18;98089.50;;;0.45;73.43
3960;BME280;1994;48.640;8.894;2023-02-10T08:13:44;98091.47;;;1.03;72.40
3960;BME280;1994;48.640;8.894;2023-02-10T08:16:10;98094.63;;;1.16;71.05
3960;BME280;1994;48.640;8.894;2023-02-10T08:18:40;98100.22;;;1.40;70.42
3960;BME280;1994;48.640;8.894;2023-02-10T08:21:07;98097.25;;;1.05;70.42
3960;BME280;1994;48.640;8.894;2023-02-10T08:23:34;98095.47;;;0.96;71.59
3960;BME280;1994;48.640;8.894;2023-02-10T08:26:08;98097.47;;;1.52;70.75
3960;BME280;1994;48.640;8.894;2023-02-10T08:28:36;98089.47;;;1.76;69.28
3960;BME280;1994;48.640;8.894;2023-02-10T08:31:06;98104.63;;;2.64;67.10
3960;BME280;1994;48.640;8.894;2023-02-10T08:33:37;98109.44;;;2.86;66.11
3960;BME280;1994;48.640;8.894;2023-02-10T08:36:16;98109.34;;;2.59;64.67
3960;BME280;1994;48.640;8.894;2023-02-10T08:38:46;98113.91;;;2.18;67.04
3960;BME280;1994;48.640;8.894;2023-02-10T08:41:15;98118.34;;;2.54;67.04
3960;BME280;1994;48.640;8.894;2023-02-10T08:43:42;98113.09;;;2.27;66.65
3960;BME280;1994;48.640;8.894;2023-02-10T08:46:08;98114.63;;;3.04;64.57
3960;BME280;1994;48.640;8.894;2023-02-10T08:48:37;98112.50;;;2.80;63.78
3960;BME280;1994;48.640;8.894;2023-02-10T08:51:09;98122.09;;;3.70;62.27
3960;BME280;1994;48.640;8.894;2023-02-10T08:53:36;98119.00;;;3.94;60.72
3960;BME280;1994;48.640;8.894;2023-02-10T08:56:06;98116.63;;;3.56;60.60
3960;BME280;1994;48.640;8.894;2023-02-10T08:58:33;98115.50;;;3.68;60.67
3960;BME280;1994;48.640;8.894;2023-02-10T09:00:59;98113.53;;;4.24;59.15
3960;BME280;1994;48.640;8.894;2023-02-10T09:03:27;98113.81;;;5.42;56.65
3960;BME280;1994;48.640;8.894;2023-02-10T09:05:54;98110.97;;;5.53;55.23
3960;BME280;1994;48.640;8.894;2023-02-10T09:08:20;98119.63;;;6.27;54.03
3960;BME280;1994;48.640;8.894;2023-02-10T09:10:46;98111.59;;;6.46;53.38
3960;BME280;1994;48.640;8.894;2023-02-10T09:13:12;98114.50;;;7.15;51.22
3960;BME280;1994;48.640;8.894;2023-02-10T09:15:40;98120.81;;;6.64;51.99
3960;BME280;1994;48.640;8.894;2023-02-10T09:18:07;98110.31;;;7.06;50.54
3960;BME280;1994;48.640;8.894;2023-02-10T09:20:34;98114.53;;;6.99;51.01
3960;BME280;1994;48.640;8.894;2023-02-10T09:23:00;98117.09;;;6.75;51.10
3960;BME280;1994;48.640;8.894;2023-02-10T09:25:26;98110.50;;;6.72;50.56
3960;BME280;1994;48.640;8.894;2023-02-10T09:27:52;98108.41;;;6.60;51.86
3960;BME280;1994;48.640;8.894;2023-02-10T09:30:20;98110.31;;;7.06;51.36
3960;BME280;1994;48.640;8.894;2023-02-10T09:32:54;98104.38;;;8.37;47.40
3960;BME280;1994;48.640;8.894;2023-02-10T09:35:20;98106.72;;;8.16;47.95
3960;BME280;1994;48.640;8.894;2023-02-10T09:37:46;98112.50;;;8.26;49.11
3960;BME280;1994;48.640;8.894;2023-02-10T09:40:22;98111.97;;;8.61;47.90
3960;BME280;1994;48.640;8.894;2023-02-10T09:43:18;98116.44;;;9.70;45.98
3960;BME280;1994;48.640;8.894;2023-02-10T09:52:02;98125.50;;;8.85;46.56
3960;BME280;1994;48.640;8.894;2023-02-10T09:54:29;98130.19;;;8.37;48.03
3960;BME280;1994;48.640;8.894;2023-02-10T09:57:22;98117.34;;;8.74;47.39
3960;BME280;1994;48.640;8.894;2023-02-10T09:59:51;98117.31;;;9.48;46.02
3960;BME280;1994;48.640;8.894;2023-02-10T10:02:42;98131.97;;;9.70;45.81
3960;BME280;1994;48.640;8.894;2023-02-10T10:11:44;98122.25;;;11.27;42.88
3960;BME280;1994;48.640;8.894;2023-02-10T10:14:44;98128.34;;;11.68;42.26
3960;BME280;1994;48.640;8.894;2023-02-10T10:17:35;98118.72;;;11.62;42.04
3960;BME280;1994;48.640;8.894;2023-02-10T10:20:47;98109.34;;;9.35;45.22
3960;BME280;1994;48.640;8.894;2023-02-10T10:23:26;98111.59;;;9.67;45.91
3960;BME280;1994;48.640;8.894;2023-02-10T10:26:39;98123.00;;;9.58;45.79
3960;BME280;1994;48.640;8.894;2023-02-10T10:29:51;98121.44;;;10.78;43.58
3960;BME280;1994;48.640;8.894;2023-02-10T10:32:47;98119.59;;;10.30;44.89
3960;BME280;1994;48.640;8.894;2023-02-10T10:35:31;98116.56;;;10.12;45.61
3960;BME280;1994;48.640;8.894;2023-02-10T10:37:59;98115.28;;;10.79;43.39
3960;BME280;1994;48.640;8.894;2023-02-10T10:40:30;98123.34;;;10.13;44.70
3960;BME280;1994;48.640;8.894;2023-02-10T10:43:00;98121.41;;;9.86;46.62
3960;BME280;1994;48.640;8.894;2023-02-10T10:45:42;98113.53;;;11.07;43.03
3960;BME280;1994;48.640;8.894;2023-02-10T10:48:19;98120.28;;;12.57;41.59
3960;BME280;1994;48.640;8.894;2023-02-10T10:50:51;98114.69;;;12.60;40.97
3960;BME280;1994;48.640;8.894;2023-02-10T10:53:29;98111.53;;;12.90;39.54
3960;BME280;1994;48.640;8.894;2023-02-10T10:55:58;98117.06;;;12.42;40.32
3960;BME280;1994;48.640;8.894;2023-02-10T10:58:37;98110.19;;;11.13;42.13
3960;BME280;1994;48.640;8.894;2023-02-10T11:01:04;98112.38;;;11.71;42.28
3960;BME280;1994;48.640;8.894;2023-02-10T11:03:32;98103.38;;;12.14;40.95
3960;BME280;1994;48.640;8.894;2023-02-10T11:06:10;98096.28;;;12.42;39.76
3960;BME280;1994;48.640;8.894;2023-02-10T11:09:04;98087.09;;;12.85;39.65
3960;BME280;1994;48.640;8.894;2023-02-10T11:11:41;98085.28;;;13.44;38.80
3960;BME280;1994;48.640;8.894;2023-02-10T11:14:28;98094.00;;;14.39;37.66
3960;BME280;1994;48.640;8.894;2023-02-10T11:16:58;98086.03;;;14.27;37.00
3960;BME280;1994;48.640;8.894;2023-02-10T11:19:33;98088.03;;;13.75;37.37
3960;BME280;1994;48.640;8.894;2023-02-10T11:22:00;98089.13;;;12.96;35.78
3960;BME280;1994;48.640;8.894;2023-02-10T11:24:33;98081.31;;;12.70;38.84
3960;BME280;1994;48.640;8.894;2023-02-10T11:27:00;98088.38;;;13.02;36.37
3960;BME280;1994;48.640;8.894;2023-02-10T11:29:29;98085.00;;;13.78;34.81
3960;BME280;1994;48.640;8.894;2023-02-10T11:31:56;98086.00;;;14.34;33.82
3960;BME280;1994;48.640;8.894;2023-02-10T11:34:43;98082.19;;;14.30;33.61
3960;BME280;1994;48.640;8.894;2023-02-10T11:37:28;98083.94;;;13.35;33.82
3960;BME280;1994;48.640;8.894;2023-02-10T11:39:58;98091.38;;;13.95;33.67
3960;BME280;1994;48.640;8.894;2023-02-10T11:42:35;98089.44;;;13.77;32.56
3960;BME280;1994;48.640;8.894;2023-02-10T11:47:33;98078.81;;;14.60;29.99
3960;BME280;1994;48.640;8.894;2023-02-10T11:49:59;98078.81;;;14.60;28.50
3960;BME280;1994;48.640;8.894;2023-02-10T11:52:28;98081.56;;;14.34;29.15
3960;BME280;1994;48.640;8.894;2023-02-10T11:54:56;98072.81;;;14.16;28.56
3960;BME280;1994;48.640;8.894;2023-02-10T12:01:22;98067.31;;;15.17;27.79
3960;BME280;1994;48.640;8.894;2023-02-10T12:10:23;98071.34;;;13.89;28.33
3960;BME280;1994;48.640;8.894;2023-02-10T12:19:08;98064.72;;;12.77;30.28
3960;BME280;1994;48.640;8.894;2023-02-10T12:21:52;98061.09;;;12.59;30.62
3960;BME280;1994;48.640;8.894;2023-02-10T12:30:49;98054.88;;;12.34;31.95
3960;BME280;1994;48.640;8.894;2023-02-10T12:34:03;98045.50;;;11.73;32.50
3960;BME280;1994;48.640;8.894;2023-02-10T12:39:44;98049.00;;;10.70;33.80
3960;BME280;1994;48.640;8.894;2023-02-10T12:46:03;98037.38;;;10.17;34.50
3960;BME280;1994;48.640;8.894;2023-02-10T12:53:55;98033.38;;;10.57;35.23
3960;BME280;1994;48.640;8.894;2023-02-10T12:56:42;98024.28;;;10.67;34.24
3960;BME280;1994;48.640;8.894;2023-02-10T13:02:00;98027.09;;;10.72;33.79
3960;BME280;1994;48.640;8.894;2023-02-10T13:04:38;98015.25;;;9.65;35.24
3960;BME280;1994;48.640;8.894;2023-02-10T13:07:35;98018.81;;;9.64;35.78
3960;BME280;1994;48.640;8.894;2023-02-10T13:13:25;98010.41;;;10.33;35.38
3960;BME280;1994;48.640;8.894;2023-02-10T13:16:10;98011.78;;;10.08;35.58
3960;BME280;1994;48.640;8.894;2023-02-10T13:22:42;98011.97;;;9.92;35.63
3960;BME280;1994;48.640;8.894;2023-02-10T13:28:21;98019.53;;;9.58;36.37
3960;BME280;1994;48.640;8.894;2023-02-10T13:31:24;98018.19;;;9.62;36.08
3960;BME280;1994;48.640;8.894;2023-02-10T13:36:56;98018.31;;;9.25;36.77
3960;BME280;1994;48.640;8.894;2023-02-10T13:39:30;98013.13;;;9.54;36.58
3960;BME280;1994;48.640;8.894;2023-02-10T13:42:26;98020.09;;;9.39;37.01
3960;BME280;1994;48.640;8.894;2023-02-10T13:45:16;98028.31;;;9.28;36.89
3960;BME280;1994;48.640;8.894;2023-02-10T13:48:07;98017.16;;;9.27;37.85
3960;BME280;1994;48.640;8.894;2023-02-10T13:50:52;98016.88;;;9.08;37.90
3960;BME280;1994;48.640;8.894;2023-02-10T13:53:41;98018.84;;;9.06;38.92
3960;BME280;1994;48.640;8.894;2023-02-10T13:59:00;98022.00;;;9.01;38.65
3960;BME280;1994;48.640;8.894;2023-02-10T14:01:48;98026.31;;;8.72;39.08
3960;BME280;1994;48.640;8.894;2023-02-10T14:06:49;98026.44;;;8.56;39.64
3960;BME280;1994;48.640;8.894;2023-02-10T14:12:02;98026.78;;;8.08;40.24
3960;BME280;1994;48.640;8.894;2023-02-10T14:14:37;98025.31;;;8.36;40.91
3960;BME280;1994;48.640;8.894;2023-02-10T14:19:46;98035.19;;;8.32;41.36
3960;BME280;1994;48.640;8.894;2023-02-10T14:22:36;98035.13;;;8.10;41.09
3960;BME280;1994;48.640;8.894;2023-02-10T14:27:54;98034.94;;;7.89;41.81
3960;BME280;1994;48.640;8.894;2023-02-10T14:30:44;98027.09;;;8.05;42.29
3960;BME280;1994;48.640;8.894;2023-02-10T14:33:31;98033.41;;;7.80;42.01
3960;BME280;1994;48.640;8.894;2023-02-10T14:36:21;98035.69;;;7.67;42.28
3960;BME280;1994;48.640;8.894;2023-02-10T14:39:02;98032.19;;;7.60;43.04
3960;BME280;1994;48.640;8.894;2023-02-10T14:41:30;98025.16;;;7.46;42.79
3960;BME280;1994;48.640;8.894;2023-02-10T14:43:57;98032.19;;;7.60;43.35
3960;BME280;1994;48.640;8.894;2023-02-10T14:46:29;98025.44;;;7.59;43.73
3960;BME280;1994;48.640;8.894;2023-02-10T14:49:09;98020.81;;;7.46;44.21
3960;BME280;1994;48.640;8.894;2023-02-10T14:51:42;98019.13;;;7.23;43.96
3960;BME280;1994;48.640;8.894;2023-02-10T14:54:20;98030.44;;;7.14;44.24
3960;BME280;1994;48.640;8.894;2023-02-10T14:56:59;98020.50;;;7.03;44.37
3960;BME280;1994;48.640;8.894;2023-02-10T14:59:29;98028.81;;;7.13;44.49
3960;BME280;1994;48.640;8.894;2023-02-10T15:01:59;98022.34;;;7.25;44.49
3960;BME280;1994;48.640;8.894;2023-02-10T15:04:26;98027.81;;;7.30;44.25
3960;BME280;1994;48.640;8.894;2023-02-10T15:06:54;98023.59;;;7.37;45.67
3960;BME280;1994;48.640;8.894;2023-02-10T15:09:28;98021.69;;;7.31;46.03
3960;BME280;1994;48.640;8.894;2023-02-10T15:12:03;98033.25;;;7.35;45.12
3960;BME280;1994;48.640;8.894;2023-02-10T15:15:25;98038.09;;;7.38;45.81
3960;BME280;1994;48.640;8.894;2023-02-10T15:18:00;98030.75;;;7.11;45.78
3960;BME280;1994;48.640;8.894;2023-02-10T15:20:31;98030.09;;;7.17;46.02
3960;BME280;1994;48.640;8.894;2023-02-10T15:31:01;98026.28;;;6.97;46.76